sensor_id;sensor_type;location;lat;lon;timestamp;temperature;humidity
8711;DHT22;4392;47.400;8.062;2023-07-20T00:00:18;25.20;63.40
8711;DHT22;4392;47.400;8.062;2023-07-20T00:02:50;25.20;63.60
8711;DHT22;4392;47.400;8.062;2023-07-20T00:05:18;25.20;63.40
8711;DHT22;4392;47.400;8.062;2023-07-20T00:07:50;25.20;63.50
8711;DHT22;4392;47.400;8.062;2023-07-20T00:10:19;25.20;63.30
8711;DHT22;4392;47.400;8.062;2023-07-20T00:12:48;25.10;63.50
8711;DHT22;4392;47.400;8.062;2023-07-20T00:15:15;25.10;63.20
8711;DHT22;4392;47.400;8.062;2023-07-20T00:17:41;25.00;63.30
8711;DHT22;4392;47.400;8.062;2023-07-20T00:20:13;25.00;63.60
8711;DHT22;4392;47.400;8.062;2023-07-20T00:22:41;25.10;65.90
8711;DHT22;4392;47.400;8.062;2023-07-20T00:25:07;25.10;66.10
8711;DHT22;4392;47.400;8.062;2023-07-20T00:27:39;25.10;64.10
8711;DHT22;4392;47.400;8.062;2023-07-20T00:30:05;25.10;64.80
8711;DHT22;4392;47.400;8.062;2023-07-20T00:32:31;25.10;63.90
8711;DHT22;4392;47.400;8.062;2023-07-20T00:34:59;25.00;63.40
8711;DHT22;4392;47.400;8.062;2023-07-20T00:37:28;25.10;63.30
8711;DHT22;4392;47.400;8.062;2023-07-20T00:39:54;25.10;63.00
8711;DHT22;4392;47.400;8.062;2023-07-20T00:42:20;25.10;63.60
8711;DHT22;4392;47.400;8.062;2023-07-20T00:44:49;25.20;67.70
8711;DHT22;4392;47.400;8.062;2023-07-20T00:47:15;25.20;65.00
8711;DHT22;4392;47.400;8.062;2023-07-20T00:49:41;25.10;63.40
8711;DHT22;4392;47.400;8.062;2023-07-20T00:52:10;24.90;63.00
8711;DHT22;4392;47.400;8.062;2023-07-20T00:54:41;24.90;63.20
8711;DHT22;4392;47.400;8.062;2023-07-20T00:57:07;24.80;62.80
8711;DHT22;4392;47.400;8.062;2023-07-20T00:59:39;24.80;62.70
8711;DHT22;4392;47.400;8.062;2023-07-20T01:02:05;24.70;62.40
8711;DHT22;4392;47.400;8.062;2023-07-20T01:04:31;24.70;62.00
8711;DHT22;4392;47.400;8.062;2023-07-20T01:09:31;24.70;61.60
8711;DHT22;4392;47.400;8.062;2023-07-20T01:12:07;24.70;61.70
8711;DHT22;4392;47.400;8.062;2023-07-20T01:14:34;24.70;61.60
8711;DHT22;4392;47.400;8.062;2023-07-20T01:17:05;24.70;61.70
8711;DHT22;4392;47.400;8.062;2023-07-20T01:19:31;24.70;62.20
8711;DHT22;4392;47.400;8.062;2023-07-20T01:33:00;24.70;63.00
8711;DHT22;4392;47.400;8.062;2023-07-20T01:35:35;24.70;63.00
8711;DHT22;4392;47.400;8.062;2023-07-20T01:38:02;24.70;64.40
8711;DHT22;4392;47.400;8.062;2023-07-20T01:40:29;24.80;65.10
8711;DHT22;4392;47.400;8.062;2023-07-20T01:43:01;24.80;65.00
8711;DHT22;4392;47.400;8.062;2023-07-20T01:45:27;24.80;65.50
8711;DHT22;4392;47.400;8.062;2023-07-20T01:47:53;24.80;65.60
8711;DHT22;4392;47.400;8.062;2023-07-20T01:50:19;24.70;65.50
8711;DHT22;4392;47.400;8.062;2023-07-20T01:52:46;25.00;82.10
8711;DHT22;4392;47.400;8.062;2023-07-20T01:55:12;25.10;68.50
8711;DHT22;4392;47.400;8.062;2023-07-20T01:57:38;25.00;64.90
8711;DHT22;4392;47.400;8.062;2023-07-20T02:00:04;24.60;63.60
8711;DHT22;4392;47.400;8.062;2023-07-20T02:02:37;24.50;63.40
8711;DHT22;4392;47.400;8.062;2023-07-20T02:05:04;24.50;64.30
8711;DHT22;4392;47.400;8.062;2023-07-20T02:07:32;24.60;64.70
8711;DHT22;4392;47.400;8.062;2023-07-20T02:09:57;24.50;64.80
8711;DHT22;4392;47.400;8.062;2023-07-20T02:12:23;24.50;64.40
8711;DHT22;4392;47.400;8.062;2023-07-20T02:14:51;24.50;64.40
8711;DHT22;4392;47.400;8.062;2023-07-20T02:17:19;24.40;64.40
8711;DHT22;4392;47.400;8.062;2023-07-20T02:19:45;24.30;64.50
8711;DHT22;4392;47.400;8.062;2023-07-20T02:22:17;24.30;64.70
8711;DHT22;4392;47.400;8.062;2023-07-20T02:24:42;24.30;64.70
8711;DHT22;4392;47.400;8.062;2023-07-20T02:27:08;24.10;65.00
8711;DHT22;4392;47.400;8.062;2023-07-20T02:29:34;24.00;65.20
8711;DHT22;4392;47.400;8.062;2023-07-20T02:31:59;24.10;65.30
8711;DHT22;4392;47.400;8.062;2023-07-20T02:34:25;24.10;65.40
8711;DHT22;4392;47.400;8.062;2023-07-20T02:36:55;24.10;65.60
8711;DHT22;4392;47.400;8.062;2023-07-20T02:39:24;24.20;69.90
8711;DHT22;4392;47.400;8.062;2023-07-20T02:41:56;24.40;68.60
8711;DHT22;4392;47.400;8.062;2023-07-20T02:44:22;24.30;65.60
8711;DHT22;4392;47.400;8.062;2023-07-20T02:46:48;24.20;65.40
8711;DHT22;4392;47.400;8.062;2023-07-20T02:49:15;24.10;65.20
8711;DHT22;4392;47.400;8.062;2023-07-20T02:51:44;24.20;66.00
8711;DHT22;4392;47.400;8.062;2023-07-20T02:54:10;24.20;66.40
8711;DHT22;4392;47.400;8.062;2023-07-20T02:56:35;24.10;66.80
8711;DHT22;4392;47.400;8.062;2023-07-20T02:59:02;24.20;67.60
8711;DHT22;4392;47.400;8.062;2023-07-20T03:01:28;24.20;66.70
8711;DHT22;4392;47.400;8.062;2023-07-20T03:03:55;24.10;66.90
8711;DHT22;4392;47.400;8.062;2023-07-20T03:06:21;24.00;67.40
8711;DHT22;4392;47.400;8.062;2023-07-20T03:08:49;24.00;66.80
8711;DHT22;4392;47.400;8.062;2023-07-20T03:11:19;23.90;67.50
8711;DHT22;4392;47.400;8.062;2023-07-20T03:13:48;23.80;67.70
8711;DHT22;4392;47.400;8.062;2023-07-20T03:16:18;23.80;68.10
8711;DHT22;4392;47.400;8.062;2023-07-20T03:18:46;24.20;80.30
8711;DHT22;4392;47.400;8.062;2023-07-20T03:21:21;24.50;81.40
8711;DHT22;4392;47.400;8.062;2023-07-20T03:23:47;24.70;77.30
8711;DHT22;4392;47.400;8.062;2023-07-20T03:26:12;24.80;77.60
8711;DHT22;4392;47.400;8.062;2023-07-20T03:28:40;24.90;77.40
8711;DHT22;4392;47.400;8.062;2023-07-20T03:31:06;25.00;77.70
8711;DHT22;4392;47.400;8.062;2023-07-20T03:33:34;25.00;75.90
8711;DHT22;4392;47.400;8.062;2023-07-20T03:36:02;25.10;71.20
8711;DHT22;4392;47.400;8.062;2023-07-20T03:38:31;25.20;70.10
8711;DHT22;4392;47.400;8.062;2023-07-20T03:40:58;25.00;71.10
8711;DHT22;4392;47.400;8.062;2023-07-20T03:43:25;25.00;71.30
8711;DHT22;4392;47.400;8.062;2023-07-20T03:45:55;25.00;72.80
8711;DHT22;4392;47.400;8.062;2023-07-20T03:48:23;25.00;72.10
8711;DHT22;4392;47.400;8.062;2023-07-20T03:50:50;25.00;73.20
8711;DHT22;4392;47.400;8.062;2023-07-20T03:53:22;25.00;72.20
8711;DHT22;4392;47.400;8.062;2023-07-20T03:55:49;25.10;74.40
8711;DHT22;4392;47.400;8.062;2023-07-20T03:58:21;25.10;71.90
8711;DHT22;4392;47.400;8.062;2023-07-20T04:00:54;24.90;70.50
8711;DHT22;4392;47.400;8.062;2023-07-20T04:03:22;24.70;70.30
8711;DHT22;4392;47.400;8.062;2023-07-20T04:05:50;24.50;69.90
8711;DHT22;4392;47.400;8.062;2023-07-20T04:08:15;24.40;69.90
8711;DHT22;4392;47.400;8.062;2023-07-20T04:10:44;24.30;70.10
8711;DHT22;4392;47.400;8.062;2023-07-20T04:13:11;24.10;71.80
8711;DHT22;4392;47.400;8.062;2023-07-20T04:15:37;24.00;72.20
8711;DHT22;4392;47.400;8.062;2023-07-20T04:20:34;24.20;77.50
8711;DHT22;4392;47.400;8.062;2023-07-20T04:23:00;24.40;72.80
8711;DHT22;4392;47.400;8.062;2023-07-20T04:25:26;24.40;70.90
8711;DHT22;4392;47.400;8.062;2023-07-20T04:27:51;24.30;71.10
8711;DHT22;4392;47.400;8.062;2023-07-20T04:30:19;24.20;71.60
8711;DHT22;4392;47.400;8.062;2023-07-20T04:32:48;24.10;71.50
8711;DHT22;4392;47.400;8.062;2023-07-20T04:35:44;24.10;71.50
8711;DHT22;4392;47.400;8.062;2023-07-20T04:38:04;24.00;71.00
8711;DHT22;4392;47.400;8.062;2023-07-20T04:40:30;24.00;71.10
8711;DHT22;4392;47.400;8.062;2023-07-20T04:43:02;24.00;70.90
8711;DHT22;4392;47.400;8.062;2023-07-20T04:45:28;24.00;71.00
8711;DHT22;4392;47.400;8.062;2023-07-20T04:47:55;24.00;71.00
8711;DHT22;4392;47.400;8.062;2023-07-20T04:50:23;24.00;71.10
8711;DHT22;4392;47.400;8.062;2023-07-20T04:52:51;24.00;71.40
8711;DHT22;4392;47.400;8.062;2023-07-20T04:55:17;23.90;72.10
8711;DHT22;4392;47.400;8.062;2023-07-20T04:57:43;23.90;72.30
8711;DHT22;4392;47.400;8.062;2023-07-20T05:00:15;23.90;72.20
8711;DHT22;4392;47.400;8.062;2023-07-20T05:02:40;24.00;72.70
8711;DHT22;4392;47.400;8.062;2023-07-20T05:05:06;24.00;73.90
8711;DHT22;4392;47.400;8.062;2023-07-20T05:07:36;24.00;75.00
8711;DHT22;4392;47.400;8.062;2023-07-20T05:10:02;23.80;76.10
8711;DHT22;4392;47.400;8.062;2023-07-20T05:12:27;23.90;78.50
8711;DHT22;4392;47.400;8.062;2023-07-20T05:14:53;24.30;81.30
8711;DHT22;4392;47.400;8.062;2023-07-20T05:17:19;24.50;78.20
8711;DHT22;4392;47.400;8.062;2023-07-20T05:19:45;24.30;78.30
8711;DHT22;4392;47.400;8.062;2023-07-20T05:22:16;24.30;77.40
8711;DHT22;4392;47.400;8.062;2023-07-20T05:24:42;24.40;77.30
8711;DHT22;4392;47.400;8.062;2023-07-20T05:27:08;24.40;77.40
8711;DHT22;4392;47.400;8.062;2023-07-20T05:29:35;24.50;79.80
8711;DHT22;4392;47.400;8.062;2023-07-20T05:32:01;24.70;79.30
8711;DHT22;4392;47.400;8.062;2023-07-20T05:34:31;24.60;77.20
8711;DHT22;4392;47.400;8.062;2023-07-20T05:36:57;24.50;80.00
8711;DHT22;4392;47.400;8.062;2023-07-20T05:39:23;24.60;81.60
8711;DHT22;4392;47.400;8.062;2023-07-20T05:41:48;24.80;79.60
8711;DHT22;4392;47.400;8.062;2023-07-20T05:44:14;24.60;76.30
8711;DHT22;4392;47.400;8.062;2023-07-20T05:46:46;24.50;76.00
8711;DHT22;4392;47.400;8.062;2023-07-20T05:49:11;24.40;77.10
8711;DHT22;4392;47.400;8.062;2023-07-20T05:51:37;24.50;79.60
8711;DHT22;4392;47.400;8.062;2023-07-20T05:54:03;24.40;78.10
8711;DHT22;4392;47.400;8.062;2023-07-20T05:56:36;24.20;78.60
8711;DHT22;4392;47.400;8.062;2023-07-20T05:59:03;24.20;78.50
8711;DHT22;4392;47.400;8.062;2023-07-20T06:01:28;24.20;78.30
8711;DHT22;4392;47.400;8.062;2023-07-20T06:03:54;24.20;78.80
8711;DHT22;4392;47.400;8.062;2023-07-20T06:06:20;24.20;79.00
8711;DHT22;4392;47.400;8.062;2023-07-20T06:08:46;24.20;79.40
8711;DHT22;4392;47.400;8.062;2023-07-20T06:11:11;24.20;80.20
8711;DHT22;4392;47.400;8.062;2023-07-20T06:13:39;24.20;80.60
8711;DHT22;4392;47.400;8.062;2023-07-20T06:16:05;24.10;80.20
8711;DHT22;4392;47.400;8.062;2023-07-20T06:18:30;24.10;80.30
8711;DHT22;4392;47.400;8.062;2023-07-20T06:20:56;24.20;80.00
8711;DHT22;4392;47.400;8.062;2023-07-20T06:23:22;24.10;80.50
8711;DHT22;4392;47.400;8.062;2023-07-20T06:25:53;24.10;81.10
8711;DHT22;4392;47.400;8.062;2023-07-20T06:28:18;24.10;80.60
8711;DHT22;4392;47.400;8.062;2023-07-20T06:30:44;24.10;80.50
8711;DHT22;4392;47.400;8.062;2023-07-20T06:33:10;24.20;80.00
8711;DHT22;4392;47.400;8.062;2023-07-20T06:35:35;24.10;79.90
8711;DHT22;4392;47.400;8.062;2023-07-20T06:38:02;24.20;79.70
8711;DHT22;4392;47.400;8.062;2023-07-20T06:40:33;24.20;78.80
8711;DHT22;4392;47.400;8.062;2023-07-20T06:42:59;24.30;78.50
8711;DHT22;4392;47.400;8.062;2023-07-20T06:45:25;24.20;78.70
8711;DHT22;4392;47.400;8.062;2023-07-20T06:47:51;24.30;78.90
8711;DHT22;4392;47.400;8.062;2023-07-20T06:50:19;24.30;78.40
8711;DHT22;4392;47.400;8.062;2023-07-20T06:52:45;24.30;78.60
8711;DHT22;4392;47.400;8.062;2023-07-20T06:55:14;24.30;78.80
8711;DHT22;4392;47.400;8.062;2023-07-20T06:57:40;24.40;78.90
8711;DHT22;4392;47.400;8.062;2023-07-20T07:00:09;24.40;77.50
8711;DHT22;4392;47.400;8.062;2023-07-20T07:02:39;24.40;77.30
8711;DHT22;4392;47.400;8.062;2023-07-20T07:05:05;24.40;75.30
8711;DHT22;4392;47.400;8.062;2023-07-20T07:07:31;24.60;79.20
8711;DHT22;4392;47.400;8.062;2023-07-20T07:09:57;24.80;77.70
8711;DHT22;4392;47.400;8.062;2023-07-20T07:12:23;24.70;73.00
8711;DHT22;4392;47.400;8.062;2023-07-20T07:14:52;24.60;73.90
8711;DHT22;4392;47.400;8.062;2023-07-20T07:17:19;24.60;72.50
8711;DHT22;4392;47.400;8.062;2023-07-20T07:19:44;24.60;73.30
8711;DHT22;4392;47.400;8.062;2023-07-20T07:22:16;24.60;71.50
8711;DHT22;4392;47.400;8.062;2023-07-20T07:24:42;24.60;71.70
8711;DHT22;4392;47.400;8.062;2023-07-20T07:27:09;24.70;71.40
8711;DHT22;4392;47.400;8.062;2023-07-20T07:29:34;24.80;71.40
8711;DHT22;4392;47.400;8.062;2023-07-20T07:32:04;24.80;71.40
8711;DHT22;4392;47.400;8.062;2023-07-20T07:34:30;24.80;71.60
8711;DHT22;4392;47.400;8.062;2023-07-20T07:37:05;24.70;70.50
8711;DHT22;4392;47.400;8.062;2023-07-20T07:39:34;24.70;71.50
8711;DHT22;4392;47.400;8.062;2023-07-20T07:42:01;24.60;70.50
8711;DHT22;4392;47.400;8.062;2023-07-20T07:44:29;24.70;70.60
8711;DHT22;4392;47.400;8.062;2023-07-20T07:46:55;24.80;71.10
8711;DHT22;4392;47.400;8.062;2023-07-20T07:49:21;24.80;71.10
8711;DHT22;4392;47.400;8.062;2023-07-20T07:51:52;24.90;71.90
8711;DHT22;4392;47.400;8.062;2023-07-20T07:54:20;24.90;72.10
8711;DHT22;4392;47.400;8.062;2023-07-20T07:56:46;24.60;75.50
8711;DHT22;4392;47.400;8.062;2023-07-20T07:59:12;24.80;79.00
8711;DHT22;4392;47.400;8.062;2023-07-20T08:01:44;24.90;71.20
8711;DHT22;4392;47.400;8.062;2023-07-20T08:04:10;25.00;74.10
8711;DHT22;4392;47.400;8.062;2023-07-20T08:06:36;25.00;71.20
8711;DHT22;4392;47.400;8.062;2023-07-20T08:09:01;25.00;70.90
8711;DHT22;4392;47.400;8.062;2023-07-20T08:11:32;25.00;70.90
8711;DHT22;4392;47.400;8.062;2023-07-20T08:14:02;25.00;71.60
8711;DHT22;4392;47.400;8.062;2023-07-20T08:16:29;25.00;71.90
8711;DHT22;4392;47.400;8.062;2023-07-20T08:18:57;25.20;72.60
8711;DHT22;4392;47.400;8.062;2023-07-20T08:21:22;25.30;72.60
8711;DHT22;4392;47.400;8.062;2023-07-20T08:23:53;25.20;71.80
8711;DHT22;4392;47.400;8.062;2023-07-20T08:26:19;25.10;71.40
8711;DHT22;4392;47.400;8.062;2023-07-20T08:28:48;25.10;71.50
8711;DHT22;4392;47.400;8.062;2023-07-20T08:31:22;25.10;71.00
8711;DHT22;4392;47.400;8.062;2023-07-20T08:33:49;25.00;71.50
8711;DHT22;4392;47.400;8.062;2023-07-20T08:36:18;24.90;71.60
8711;DHT22;4392;47.400;8.062;2023-07-20T08:38:44;25.10;71.60
8711;DHT22;4392;47.400;8.062;2023-07-20T08:41:12;25.10;70.60
8711;DHT22;4392;47.400;8.062;2023-07-20T08:43:43;25.10;70.90
8711;DHT22;4392;47.400;8.062;2023-07-20T08:46:12;25.10;71.90
8711;DHT22;4392;47.400;8.062;2023-07-20T08:48:42;25.10;71.50
8711;DHT22;4392;47.400;8.062;2023-07-20T08:51:12;25.20;72.00
8711;DHT22;4392;47.400;8.062;2023-07-20T08:53:39;25.20;72.10
8711;DHT22;4392;47.400;8.062;2023-07-20T08:56:11;25.20;71.90
8711;DHT22;4392;47.400;8.062;2023-07-20T08:58:39;25.30;71.80
8711;DHT22;4392;47.400;8.062;2023-07-20T09:01:13;25.30;70.30
8711;DHT22;4392;47.400;8.062;2023-07-20T09:03:40;25.20;71.10
8711;DHT22;4392;47.400;8.062;2023-07-20T09:06:13;25.20;70.80
8711;DHT22;4392;47.400;8.062;2023-07-20T09:08:40;25.20;71.00
8711;DHT22;4392;47.400;8.062;2023-07-20T09:11:12;25.10;71.20
8711;DHT22;4392;47.400;8.062;2023-07-20T09:13:41;25.10;71.00
8711;DHT22;4392;47.400;8.062;2023-07-20T09:16:16;25.20;70.50
8711;DHT22;4392;47.400;8.062;2023-07-20T09:18:41;25.20;70.50
8711;DHT22;4392;47.400;8.062;2023-07-20T09:21:07;25.20;70.20
8711;DHT22;4392;47.400;8.062;2023-07-20T09:23:37;25.30;69.80
8711;DHT22;4392;47.400;8.062;2023-07-20T09:26:13;25.40;69.40
8711;DHT22;4392;47.400;8.062;2023-07-20T09:28:51;25.50;68.50
8711;DHT22;4392;47.400;8.062;2023-07-20T09:31:23;25.40;67.90
8711;DHT22;4392;47.400;8.062;2023-07-20T09:33:49;25.50;67.10
8711;DHT22;4392;47.400;8.062;2023-07-20T09:36:17;25.50;67.40
8711;DHT22;4392;47.400;8.062;2023-07-20T09:38:43;25.50;67.30
8711;DHT22;4392;47.400;8.062;2023-07-20T09:41:15;25.60;67.30
8711;DHT22;4392;47.400;8.062;2023-07-20T09:43:41;25.70;67.20
8711;DHT22;4392;47.400;8.062;2023-07-20T09:46:07;25.70;65.70
8711;DHT22;4392;47.400;8.062;2023-07-20T09:48:42;25.70;65.60
8711;DHT22;4392;47.400;8.062;2023-07-20T09:51:17;25.80;65.90
8711;DHT22;4392;47.400;8.062;2023-07-20T09:53:44;25.80;65.70
8711;DHT22;4392;47.400;8.062;2023-07-20T09:56:16;25.80;65.00
8711;DHT22;4392;47.400;8.062;2023-07-20T09:58:44;25.50;64.60
8711;DHT22;4392;47.400;8.062;2023-07-20T10:01:21;25.30;66.20
8711;DHT22;4392;47.400;8.062;2023-07-20T10:03:53;25.10;66.80
8711;DHT22;4392;47.400;8.062;2023-07-20T10:06:23;24.90;67.70
8711;DHT22;4392;47.400;8.062;2023-07-20T10:08:53;25.20;72.10
8711;DHT22;4392;47.400;8.062;2023-07-20T10:11:22;25.40;69.80
8711;DHT22;4392;47.400;8.062;2023-07-20T10:13:53;25.40;72.10
8711;DHT22;4392;47.400;8.062;2023-07-20T10:16:25;25.60;69.30
8711;DHT22;4392;47.400;8.062;2023-07-20T10:21:40;25.20;67.20
8711;DHT22;4392;47.400;8.062;2023-07-20T10:24:07;25.30;67.00
8711;DHT22;4392;47.400;8.062;2023-07-20T10:26:34;25.50;66.40
8711;DHT22;4392;47.400;8.062;2023-07-20T10:29:00;25.50;66.20
8711;DHT22;4392;47.400;8.062;2023-07-20T10:31:26;25.90;65.70
8711;DHT22;4392;47.400;8.062;2023-07-20T10:33:57;26.00;64.70
8711;DHT22;4392;47.400;8.062;2023-07-20T10:36:26;26.00;64.80
8711;DHT22;4392;47.400;8.062;2023-07-20T10:38:57;26.10;63.90
8711;DHT22;4392;47.400;8.062;2023-07-20T10:41:28;26.10;63.40
8711;DHT22;4392;47.400;8.062;2023-07-20T10:44:07;25.90;65.20
8711;DHT22;4392;47.400;8.062;2023-07-20T10:46:46;25.90;63.00
8711;DHT22;4392;47.400;8.062;2023-07-20T10:49:18;25.70;62.40
8711;DHT22;4392;47.400;8.062;2023-07-20T10:51:57;25.70;62.60
8711;DHT22;4392;47.400;8.062;2023-07-20T10:56:49;25.40;63.40
8711;DHT22;4392;47.400;8.062;2023-07-20T11:01:55;25.40;63.50
8711;DHT22;4392;47.400;8.062;2023-07-20T11:04:47;25.60;62.90
8711;DHT22;4392;47.400;8.062;2023-07-20T11:07:37;25.80;62.40
8711;DHT22;4392;47.400;8.062;2023-07-20T11:10:23;25.80;62.70
8711;DHT22;4392;47.400;8.062;2023-07-20T11:13:18;25.70;62.00
8711;DHT22;4392;47.400;8.062;2023-07-20T11:18:26;25.90;60.50
8711;DHT22;4392;47.400;8.062;2023-07-20T11:20:58;26.00;73.40
8711;DHT22;4392;47.400;8.062;2023-07-20T11:23:23;26.20;63.80
8711;DHT22;4392;47.400;8.062;2023-07-20T11:25:53;26.20;64.60
8711;DHT22;4392;47.400;8.062;2023-07-20T11:28:19;25.90;63.40
8711;DHT22;4392;47.400;8.062;2023-07-20T11:30:52;25.70;62.80
8711;DHT22;4392;47.400;8.062;2023-07-20T11:33:18;25.80;62.30
8711;DHT22;4392;47.400;8.062;2023-07-20T11:35:48;25.90;61.70
8711;DHT22;4392;47.400;8.062;2023-07-20T11:38:19;26.10;61.60
8711;DHT22;4392;47.400;8.062;2023-07-20T11:40:45;26.10;61.10
8711;DHT22;4392;47.400;8.062;2023-07-20T11:43:17;25.80;62.20
8711;DHT22;4392;47.400;8.062;2023-07-20T11:45:44;25.60;61.50
8711;DHT22;4392;47.400;8.062;2023-07-20T11:48:17;25.50;62.10
8711;DHT22;4392;47.400;8.062;2023-07-20T11:50:46;25.70;61.70
8711;DHT22;4392;47.400;8.062;2023-07-20T11:53:15;25.60;63.10
8711;DHT22;4392;47.400;8.062;2023-07-20T11:55:43;25.70;61.20
8711;DHT22;4392;47.400;8.062;2023-07-20T11:58:13;25.70;61.70
8711;DHT22;4392;47.400;8.062;2023-07-20T12:00:45;26.00;61.50
8711;DHT22;4392;47.400;8.062;2023-07-20T12:03:12;26.30;61.40
8711;DHT22;4392;47.400;8.062;2023-07-20T12:05:40;26.00;60.90
8711;DHT22;4392;47.400;8.062;2023-07-20T12:08:11;25.90;62.20
8711;DHT22;4392;47.400;8.062;2023-07-20T12:10:39;25.80;61.20
8711;DHT22;4392;47.400;8.062;2023-07-20T12:13:12;26.00;60.20
8711;DHT22;4392;47.400;8.062;2023-07-20T12:15:38;26.20;60.00
8711;DHT22;4392;47.400;8.062;2023-07-20T12:18:06;26.20;60.20
8711;DHT22;4392;47.400;8.062;2023-07-20T12:20:37;26.30;60.40
8711;DHT22;4392;47.400;8.062;2023-07-20T12:23:14;26.20;62.30
8711;DHT22;4392;47.400;8.062;2023-07-20T12:25:50;26.40;62.30
8711;DHT22;4392;47.400;8.062;2023-07-20T12:28:19;26.40;61.10
8711;DHT22;4392;47.400;8.062;2023-07-20T12:30:47;26.40;60.50
8711;DHT22;4392;47.400;8.062;2023-07-20T12:33:25;26.40;60.20
8711;DHT22;4392;47.400;8.062;2023-07-20T12:35:51;26.40;60.00
8711;DHT22;4392;47.400;8.062;2023-07-20T12:38:21;26.40;60.50
8711;DHT22;4392;47.400;8.062;2023-07-20T12:40:55;26.20;60.90
8711;DHT22;4392;47.400;8.062;2023-07-20T12:43:21;26.10;59.90
8711;DHT22;4392;47.400;8.062;2023-07-20T12:45:55;25.90;60.80
8711;DHT22;4392;47.400;8.062;2023-07-20T12:48:21;26.00;60.80
8711;DHT22;4392;47.400;8.062;2023-07-20T12:50:54;26.20;60.40
8711;DHT22;4392;47.400;8.062;2023-07-20T12:53:20;26.20;61.10
8711;DHT22;4392;47.400;8.062;2023-07-20T12:55:50;26.30;61.10
8711;DHT22;4392;47.400;8.062;2023-07-20T12:58:16;26.50;61.20
8711;DHT22;4392;47.400;8.062;2023-07-20T13:00:42;26.60;62.20
8711;DHT22;4392;47.400;8.062;2023-07-20T13:03:08;26.80;62.30
8711;DHT22;4392;47.400;8.062;2023-07-20T13:05:35;26.80;62.40
8711;DHT22;4392;47.400;8.062;2023-07-20T13:08:04;26.90;61.90
8711;DHT22;4392;47.400;8.062;2023-07-20T13:10:33;27.00;61.80
8711;DHT22;4392;47.400;8.062;2023-07-20T13:12:59;27.10;60.30
8711;DHT22;4392;47.400;8.062;2023-07-20T13:15:30;26.90;59.30
8711;DHT22;4392;47.400;8.062;2023-07-20T13:17:59;27.00;59.70
8711;DHT22;4392;47.400;8.062;2023-07-20T13:20:26;27.30;59.00
8711;DHT22;4392;47.400;8.062;2023-07-20T13:22:54;27.40;60.00
8711;DHT22;4392;47.400;8.062;2023-07-20T13:25:22;27.50;59.00
8711;DHT22;4392;47.400;8.062;2023-07-20T13:27:48;27.50;59.60
8711;DHT22;4392;47.400;8.062;2023-07-20T13:30:13;27.60;60.00
8711;DHT22;4392;47.400;8.062;2023-07-20T13:32:44;27.60;59.50
8711;DHT22;4392;47.400;8.062;2023-07-20T13:35:11;27.70;60.80
8711;DHT22;4392;47.400;8.062;2023-07-20T13:37:37;27.70;59.80
8711;DHT22;4392;47.400;8.062;2023-07-20T13:40:07;27.80;60.30
8711;DHT22;4392;47.400;8.062;2023-07-20T13:42:37;27.50;58.80
8711;DHT22;4392;47.400;8.062;2023-07-20T13:45:09;27.40;58.50
8711;DHT22;4392;47.400;8.062;2023-07-20T13:47:35;27.40;58.40
8711;DHT22;4392;47.400;8.062;2023-07-20T13:50:04;27.50;58.00
8711;DHT22;4392;47.400;8.062;2023-07-20T13:52:30;27.50;58.40
8711;DHT22;4392;47.400;8.062;2023-07-20T13:54:57;27.40;58.80
8711;DHT22;4392;47.400;8.062;2023-07-20T13:57:25;27.40;58.50
8711;DHT22;4392;47.400;8.062;2023-07-20T13:59:51;27.60;58.20
8711;DHT22;4392;47.400;8.062;2023-07-20T14:02:17;27.80;57.70
8711;DHT22;4392;47.400;8.062;2023-07-20T14:04:46;27.70;57.90
8711;DHT22;4392;47.400;8.062;2023-07-20T14:07:13;27.60;57.90
8711;DHT22;4392;47.400;8.062;2023-07-20T14:09:39;27.40;58.30
8711;DHT22;4392;47.400;8.062;2023-07-20T14:12:05;27.60;57.10
8711;DHT22;4392;47.400;8.062;2023-07-20T14:14:31;27.60;56.60
8711;DHT22;4392;47.400;8.062;2023-07-20T14:17:02;27.70;56.50
8711;DHT22;4392;47.400;8.062;2023-07-20T14:19:28;27.70;56.40
8711;DHT22;4392;47.400;8.062;2023-07-20T14:21:53;27.90;56.40
8711;DHT22;4392;47.400;8.062;2023-07-20T14:24:20;27.80;56.50
8711;DHT22;4392;47.400;8.062;2023-07-20T14:26:53;27.90;56.60
8711;DHT22;4392;47.400;8.062;2023-07-20T14:29:26;27.90;56.10
8711;DHT22;4392;47.400;8.062;2023-07-20T14:31:54;27.90;55.80
8711;DHT22;4392;47.400;8.062;2023-07-20T14:34:21;28.00;56.10
8711;DHT22;4392;47.400;8.062;2023-07-20T14:36:51;27.90;55.60
8711;DHT22;4392;47.400;8.062;2023-07-20T14:39:17;27.90;56.00
8711;DHT22;4392;47.400;8.062;2023-07-20T14:41:43;28.10;56.30
8711;DHT22;4392;47.400;8.062;2023-07-20T14:44:13;28.10;56.00
8711;DHT22;4392;47.400;8.062;2023-07-20T14:46:38;28.00;56.30
8711;DHT22;4392;47.400;8.062;2023-07-20T14:49:04;27.70;56.90
8711;DHT22;4392;47.400;8.062;2023-07-20T14:51:30;27.70;56.30
8711;DHT22;4392;47.400;8.062;2023-07-20T14:54:05;27.60;56.80
8711;DHT22;4392;47.400;8.062;2023-07-20T14:56:32;27.80;56.50
8711;DHT22;4392;47.400;8.062;2023-07-20T14:59:04;27.80;55.60
8711;DHT22;4392;47.400;8.062;2023-07-20T15:01:31;28.00;55.90
8711;DHT22;4392;47.400;8.062;2023-07-20T15:03:57;28.30;55.40
8711;DHT22;4392;47.400;8.062;2023-07-20T15:06:23;28.20;55.40
8711;DHT22;4392;47.400;8.062;2023-07-20T15:08:51;28.60;54.70
8711;DHT22;4392;47.400;8.062;2023-07-20T15:11:17;28.50;56.00
8711;DHT22;4392;47.400;8.062;2023-07-20T15:13:42;28.60;56.80
8711;DHT22;4392;47.400;8.062;2023-07-20T15:16:08;28.60;56.80
8711;DHT22;4392;47.400;8.062;2023-07-20T15:18:36;28.50;55.50
8711;DHT22;4392;47.400;8.062;2023-07-20T15:21:07;28.60;55.00
8711;DHT22;4392;47.400;8.062;2023-07-20T15:23:33;28.50;55.60
8711;DHT22;4392;47.400;8.062;2023-07-20T15:25:59;28.70;54.70
8711;DHT22;4392;47.400;8.062;2023-07-20T15:28:25;28.70;55.50
8711;DHT22;4392;47.400;8.062;2023-07-20T15:31:07;28.70;55.10
8711;DHT22;4392;47.400;8.062;2023-07-20T15:33:33;28.90;54.80
8711;DHT22;4392;47.400;8.062;2023-07-20T15:35:59;28.80;53.80
8711;DHT22;4392;47.400;8.062;2023-07-20T15:38:25;28.80;53.60
8711;DHT22;4392;47.400;8.062;2023-07-20T15:40:56;29.00;53.20
8711;DHT22;4392;47.400;8.062;2023-07-20T15:43:26;29.00;53.30
8711;DHT22;4392;47.400;8.062;2023-07-20T15:48:48;29.10;53.20
8711;DHT22;4392;47.400;8.062;2023-07-20T15:51:15;29.20;52.60
8711;DHT22;4392;47.400;8.062;2023-07-20T15:53:44;29.60;51.70
8711;DHT22;4392;47.400;8.062;2023-07-20T15:56:12;29.50;52.20
8711;DHT22;4392;47.400;8.062;2023-07-20T15:58:40;29.60;52.20
8711;DHT22;4392;47.400;8.062;2023-07-20T16:01:12;30.10;51.20
8711;DHT22;4392;47.400;8.062;2023-07-20T16:03:38;29.80;51.40
8711;DHT22;4392;47.400;8.062;2023-07-20T16:06:06;29.90;51.30
8711;DHT22;4392;47.400;8.062;2023-07-20T16:08:35;30.00;50.60
8711;DHT22;4392;47.400;8.062;2023-07-20T16:11:03;29.60;51.20
8711;DHT22;4392;47.400;8.062;2023-07-20T16:13:29;29.70;51.20
8711;DHT22;4392;47.400;8.062;2023-07-20T16:15:58;29.60;51.80
8711;DHT22;4392;47.400;8.062;2023-07-20T16:18:23;30.20;51.30
8711;DHT22;4392;47.400;8.062;2023-07-20T16:20:49;30.50;50.30
8711;DHT22;4392;47.400;8.062;2023-07-20T16:23:15;30.50;49.40
8711;DHT22;4392;47.400;8.062;2023-07-20T16:25:40;30.30;49.10
8711;DHT22;4392;47.400;8.062;2023-07-20T16:28:12;30.00;49.60
8711;DHT22;4392;47.400;8.062;2023-07-20T16:30:38;30.00;50.00
8711;DHT22;4392;47.400;8.062;2023-07-20T16:33:05;30.40;49.60
8711;DHT22;4392;47.400;8.062;2023-07-20T16:35:40;30.50;48.60
8711;DHT22;4392;47.400;8.062;2023-07-20T16:38:09;30.70;48.20